ADDS METAR Data INFO
IDs: Format: Raw Decoded Include TAF

Data at: 0251 UTC 21 Oct 2017

KHSV 210153Z 09003KT 10SM BKN250 15/12 A3018 RMK AO2 SLP218 T01500122 $
KHSV 210053Z 11003KT 10SM BKN250 16/12 A3018 RMK AO2 SLP216 T01560122 $
KHSV 202353Z 00000KT 10SM BKN250 18/09 A3018 RMK AO2 SLP217 T01830094 10256 20183 53002 $
KHSV 202253Z 10003KT 10SM BKN250 21/09 A3017 RMK AO2 SLP213 T02110089
KHSV 202153Z 12006KT 10SM BKN250 24/08 A3017 RMK AO2 SLP213 T02440078
KHSV 202053Z 12007KT 10SM BKN250 25/09 A3017 RMK AO2 SLP213 T02500089 56026
KHSV 201953Z 13008KT 10SM SCT250 24/06 A3018 RMK AO2 SLP216 T02440061
KHSV 201853Z 11005KT 10SM FEW250 24/07 A3021 RMK AO2 SLP225 T02440072
KHSV 201753Z 00000KT 10SM FEW250 23/08 A3025 RMK AO2 SLP239 T02330083 10233 20078 58019
KHSV 201653Z 00000KT 10SM R18R/6000FT FEW250 22/11 A3028 RMK AO2 SLP250 T02220111
KHSV 201553Z 16004KT 10SM FEW250 19/12 A3030 RMK AO2 SLP257 T01890122
KHSV 201453Z 14005KT 10SM FEW250 17/11 A3031 RMK AO2 SLP260 T01670111 51008
KHSV 201353Z 09005KT 10SM FEW250 13/11 A3030 RMK AO2 SLP259 T01330111 $
KHSV 201253Z 08005KT 10SM FEW250 11/10 A3030 RMK AO2 SLP257 T01060100 $
KHSV 201153Z 07005KT 10SM FEW250 08/07 A3028 RMK AO2 SLP253 T00780072 10106 20067 51010 $
KHSV 201053Z 10004KT 10SM CLR 08/08 A3028 RMK AO2 SLP250 T00780078 $
KHSV 200953Z AUTO 09003KT 10SM CLR 08/08 A3027 RMK AO2 SLP246 T00830078 $
KHSV 200853Z AUTO 08003KT 10SM CLR 09/08 A3025 RMK AO2 SLP240 T00890083 52003 $
KHSV 200753Z AUTO 09005KT 10SM CLR 09/09 A3025 RMK AO2 SLP238 T00940089 $
KHSV 200653Z AUTO 08004KT 10SM CLR 11/09 A3025 RMK AO2 SLP239 T01060089 $
KHSV 200553Z AUTO 04003KT 10SM CLR 11/10 A3024 RMK AO2 SLP237 T01060100 10178 20100 402500089 55002 $
KHSV 200453Z 07004KT 10SM CLR 11/11 A3024 RMK AO2 SLP237 T01110106 $
KHSV 200353Z 11004KT 10SM CLR 12/11 A3025 RMK AO2 SLP240 T01170111 $
KHSV 200253Z 11004KT 10SM CLR 13/12 A3025 RMK AO2 SLP240 T01330117 51004 $
KHSV 200153Z 14003KT 10SM CLR 13/11 A3024 RMK AO2 SLP239 T01330111 $
KHSV 200053Z 09003KT 10SM CLR 15/11 A3024 RMK AO2 SLP240 T01500111
KHSV 192353Z 13003KT 10SM FEW250 18/11 A3024 RMK AO2 SLP237 T01780106 10250 20178 53003
KHSV 192253Z 14004KT 10SM FEW250 21/09 A3023 RMK AO2 SLP232 T02060094
KHSV 192153Z 13006KT 10SM FEW250 24/08 A3022 RMK AO2 SLP231 T02390083
KHSV 192053Z 12005KT 10SM FEW250 25/08 A3023 RMK AO2 SLP232 T02500083 56018
KHSV 191953Z 16003KT 10SM FEW250 24/09 A3024 RMK AO2 SLP237 T02440089
KHSV 191853Z 00000KT 10SM CLR 23/09 A3025 RMK AO2 SLP240 T02330089
KHSV 191753Z VRB03KT 10SM CLR 23/09 A3028 RMK AO2 SLP250 T02280094 10233 20089 58016
KHSV 191653Z 00000KT 10SM CLR 22/09 A3031 RMK AO2 SLP260 T02170089
KHSV 191553Z 00000KT 10SM FEW250 20/09 A3032 RMK AO2 SLP266 T02000094
KHSV 191453Z 09005KT 10SM FEW250 17/11 A3033 RMK AO2 SLP267 T01720111 51016